logo
Search for airport 
image banner adimage banner adimage banner ad
image banner ad

LOLJ - Kepler Universitatsklinikum Neuromed Campus Kh

Located in District Stadt Linz, Austria

ICAO - , IATA -

Data provided by Airmate  

General information

Coordinates: N48°16'49" E14°17'51"
Elevation is 971 feet MSL.
 
View others Airports in Upper Austria

Operational data

Special qualification required
Current time UTC:
Current local time:
Weather at : LOWL - Linz ( 10 km )
METAR: LOWL 171820Z AUTO 25009KT 9999 -RA FEW038 SCT042 BKN050 06/04 Q1008 NOSIG
TAF: TAF LOWL 171715Z 1718/1818 34006KT 9999 SCT020 BKN040 TX06/1812Z TN04/1803Z TEMPO 1718/1816 SHRA TEMPO 1719/1806 BKN012 TEMPO 1810/1816 34012KT FEW030CB BKN040 PROB30 TEMPO 1811/1814 VRB15G25KT 4000 TSRA
View NOTAMs / SUP AIP / TFR affecting this airport [VIEW]
Communications frequencies: [VIEW]

Runways:

Airport contact information

Address: District Stadt Linz Austria

Satellite view of LOLJ